Impacts TAF Board INFO
FOR SITUATIONAL AWARENESS. NOT TO BE USED FOR FLIGHT PLANNING PURPOSES.
IDs:

KMGM - Montgomery/Dannely F, AL, US

Issued at 1720 UTC 24 Feb 2018
Updated at 2136 UTC 24 Feb 2018
Potential Impact None Slight Moderate High
Time2053Z 24/22Z 24/23Z 25/00Z 25/01Z 25/02Z 25/03Z 25/04Z 25/05Z 25/06Z 25/07Z 25/08Z 25/09Z 25/10Z>>
Type OBS PRVL PRVL PRVL PRVL PRVL PRVL PRVL PRVL PRVL PRVL PRVL PRVL PRVL
VIS 10 >6 >6 >6 >6 >6 >6 >6 >6 >6 >6 >6 4 4
CIG 80 35 35 35 35 35 35 35 35 35 35 35 10 10
Cover BKN BKN BKN BKN BKN BKN BKN BKN BKN BKN BKN BKN BKN BKN
FltCat VFR VFR VFR VFR VFR VFR VFR VFR VFR VFR VFR VFR MVFR MVFR
WX -- -- -- -- -- -- -- -- -- -- -- -- BR BR
WDir 200 180 180 180 180 180 180 180 180 180 180 180 190 190
WSpd 11 7 7 7 7 7 7 7 7 7 7 7 10 10
WGst -- 14 14 14 14 14 14 14 14 14 14 14 -- --

Raw TAF
KMGM 241720Z 2418/2518 18007G14KT P6SM FEW020 BKN035
  FM250900 19010KT 4SM BR BKN010
  FM251400 19012G24KT 3SM RA OVC010


Raw METAR
KMGM 242053Z 20011KT 10SM FEW050 BKN080 28/16 A3002 RMK AO2 SLP163 T02780161 56040
KMGM 241953Z 15010KT 10SM FEW042 FEW070 28/18 A3005 RMK AO2 SLP171 T02830178
KMGM 241853Z 16011KT 10SM SCT033 BKN042 BKN050 27/18 A3009 RMK AO2 SLP185 T02670178

METAR Board
Radar Display
Forecast Discussion

FOR SITUATIONAL AWARENESS. NOT TO BE USED FOR FLIGHT PLANNING PURPOSES.